Time;durP1;ratioP1;P1;durP2;ratioP2;P2;SDS_P1;SDS_P2;PMS_P1;PMS_P2;Temp;Humidity;BMP_temperature;BMP_pressure;BME280_temperature;BME280_humidity;BME280_pressure;Samples;Min_cycle;Max_cycle;Signal;HPM_P1;HPM_P2
2021/11/01 00:02:12;;;;;;;7.03;1.90;;;;;;;18.48;43.43;98124.59;5033695;28;20025;-75
2021/11/01 00:04:38;;;;;;;6.53;1.50;;;;;;;17.90;44.62;98122.25;5012204;28;20046;-75
2021/11/01 00:07:04;;;;;;;7.38;1.85;;;;;;;17.72;44.91;98132.88;5013631;28;20022;-75
2021/11/01 00:09:29;;;;;;;6.65;1.33;;;;;;;18.14;43.90;98127.72;5013616;28;20033;-75
2021/11/01 00:11:56;;;;;;;4.05;1.38;;;;;;;18.48;43.07;98141.19;5013366;28;20033;-75
2021/11/01 00:14:22;;;;;;;3.08;1.45;;;;;;;18.43;43.11;98144.44;5013575;28;20112;-75
2021/11/01 00:16:49;;;;;;;5.45;2.03;;;;;;;18.18;43.58;98131.94;5013447;28;20097;-75
2021/11/01 00:19:14;;;;;;;7.70;1.30;;;;;;;18.14;43.70;98138.78;5013627;28;20416;-75
2021/11/01 00:21:40;;;;;;;8.57;1.55;;;;;;;18.03;43.76;98141.75;5013405;28;20026;-75
2021/11/01 00:24:06;;;;;;;5.55;1.65;;;;;;;18.01;43.62;98131.13;5013361;28;20026;-75
2021/11/01 00:26:32;;;;;;;4.60;1.90;;;;;;;17.77;44.03;98137.16;5013394;28;20037;-75
2021/11/01 00:29:02;;;;;;;6.03;1.40;;;;;;;17.46;44.28;98151.09;5013339;28;20049;-75
2021/11/01 00:31:28;;;;;;;;;;;;;;;17.49;43.93;98139.19;5012418;28;20026;-75
2021/11/01 00:33:54;;;;;;;7.90;1.90;;;;;;;17.89;43.02;98140.03;5013151;28;19920;-75
2021/11/01 00:36:20;;;;;;;2.20;1.42;;;;;;;17.56;43.62;98154.84;5012946;28;20072;-75
2021/11/01 00:38:46;;;;;;;3.55;0.98;;;;;;;17.15;44.31;98159.50;5013071;28;20033;-75
2021/11/01 00:41:12;;;;;;;1.73;0.85;;;;;;;17.48;43.41;98154.19;5013121;28;20032;-75
2021/11/01 00:43:37;;;;;;;5.38;1.23;;;;;;;17.68;43.12;98149.50;5013337;28;20108;-75
2021/11/01 00:46:03;;;;;;;3.58;1.00;;;;;;;17.61;42.63;98141.34;5013052;28;20401;-75
2021/11/01 00:48:28;;;;;;;3.85;0.85;;;;;;;17.45;43.31;98160.53;5013078;28;20072;-75
2021/11/01 00:50:55;;;;;;;3.20;1.33;;;;;;;17.83;42.42;98157.53;5013101;28;20072;-76
2021/11/01 00:53:23;;;;;;;6.95;1.67;;;;;;;17.95;42.09;98145.84;5013002;28;20056;-75
2021/11/01 00:55:49;;;;;;;4.15;1.30;;;;;;;17.43;43.10;98135.34;5012959;28;20473;-75
2021/11/01 00:58:17;;;;;;;1.85;1.13;;;;;;;17.51;42.85;98158.09;5012840;28;20484;-75
2021/11/01 01:00:43;;;;;;;4.97;1.58;;;;;;;17.57;42.96;98146.13;5012954;28;20079;-75
2021/11/01 01:03:13;;;;;;;4.38;1.42;;;;;;;17.48;42.90;98168.78;5012904;28;20033;-75
2021/11/01 01:05:43;;;;;;;8.75;1.20;;;;;;;17.66;42.51;98173.97;5012894;28;20076;-75
2021/11/01 01:08:13;;;;;;;2.95;1.00;;;;;;;17.41;43.01;98187.44;5012912;28;20034;-75
2021/11/01 01:10:40;;;;;;;2.03;0.85;;;;;;;17.51;42.80;98158.88;5012803;28;20030;-75
2021/11/01 01:13:06;;;;;;;4.25;1.00;;;;;;;17.49;42.97;98180.59;5012848;28;20495;-75
2021/11/01 01:18:28;;;;;;;4.57;1.63;;;;;;;17.47;42.57;98177.50;5009499;28;20030;-75
2021/11/01 01:20:56;;;;;;;;;;;;;;;17.18;43.42;98182.69;5011888;28;20029;-75
2021/11/01 01:23:22;;;;;;;1.33;0.73;;;;;;;17.06;43.51;98180.53;5012641;28;19914;-75
2021/11/01 01:25:51;;;;;;;3.75;1.75;;;;;;;17.32;43.08;98190.75;5031822;28;20037;-75
2021/11/01 01:28:18;;;;;;;4.80;1.65;;;;;;;17.56;42.59;98180.47;5016277;28;20037;-75
2021/11/01 01:30:44;;;;;;;9.05;1.30;;;;;;;17.37;42.51;98189.47;5016573;28;20034;-75
2021/11/01 01:33:11;;;;;;;4.60;1.25;;;;;;;16.98;43.65;98193.66;5016546;28;20022;-75
2021/11/01 01:35:39;;;;;;;6.03;1.65;;;;;;;17.77;41.68;98201.44;5016500;28;20032;-76
2021/11/01 01:38:06;;;;;;;7.38;1.98;;;;;;;17.21;43.09;98179.09;5016403;28;20028;-75
2021/11/01 01:40:32;;;;;;;5.47;1.13;;;;;;;17.40;43.17;98188.66;5016388;28;20026;-75
2021/11/01 01:42:58;;;;;;;8.40;1.73;;;;;;;17.44;42.80;98203.16;5016430;28;20022;-75
2021/11/01 01:45:23;;;;;;;4.43;1.33;;;;;;;16.38;45.22;98192.47;5016303;28;20080;-75
2021/11/01 01:47:49;;;;;;;5.95;1.85;;;;;;;16.83;44.12;98193.06;5016256;28;20472;-75
2021/11/01 01:50:16;;;;;;;6.13;1.27;;;;;;;17.07;43.88;98202.16;5016231;28;20105;-75
2021/11/01 01:52:43;;;;;;;6.30;1.35;;;;;;;17.30;43.24;98204.16;5016232;28;20025;-75
2021/11/01 01:55:13;;;;;;;7.45;1.52;;;;;;;17.24;43.18;98202.31;5016155;28;20032;-75
2021/11/01 01:57:39;;;;;;;13.90;1.75;;;;;;;17.26;43.12;98203.47;5016023;28;20030;-75
2021/11/01 02:00:14;;;;;;;2.00;1.00;;;;;;;16.76;43.78;98206.97;5016172;28;20040;-76
2021/11/01 02:02:42;;;;;;;4.97;1.40;;;;;;;17.05;43.35;98214.81;5014736;28;20503;-74
2021/11/01 02:05:08;;;;;;;7.95;1.63;;;;;;;17.47;42.60;98213.38;5031713;28;20046;-73
2021/11/01 02:07:51;;;;;;;5.97;1.40;;;;;;;17.13;43.16;98208.00;5035328;28;20405;-73
2021/11/01 02:10:22;;;;;;;6.03;1.35;;;;;;;17.27;42.65;98204.25;5035715;28;20113;-73
2021/11/01 02:12:57;;;;;;;5.45;1.10;;;;;;;16.97;43.54;98210.63;5017767;28;20034;-74
2021/11/01 02:15:48;;;;;;;7.63;1.42;;;;;;;17.14;43.02;98223.34;5035564;28;20047;-73
2021/11/01 02:18:15;;;;;;;9.75;1.63;;;;;;;17.03;43.41;98231.03;5035365;28;20037;-73
2021/11/01 02:20:59;;;;;;;6.53;1.50;;;;;;;17.50;42.44;98231.84;5035391;28;20081;-73
2021/11/01 02:23:47;;;;;;;5.78;2.55;;;;;;;17.52;42.29;98234.19;5017646;28;20037;-73
2021/11/01 02:26:14;;;;;;;8.18;2.28;;;;;;;17.29;42.68;98237.72;5017594;28;20029;-74
2021/11/01 02:28:41;;;;;;;6.57;1.83;;;;;;;17.28;42.99;98230.63;5035324;28;20471;-73
2021/11/01 02:31:10;;;;;;;4.75;1.80;;;;;;;17.25;42.83;98235.03;5035261;28;20034;-73
2021/11/01 02:33:37;;;;;;;5.93;1.45;;;;;;;17.11;43.19;98244.28;5035138;28;20067;-73
2021/11/01 02:36:04;;;;;;;9.65;1.75;;;;;;;17.36;42.82;98241.13;5017396;28;20029;-73
2021/11/01 02:38:31;;;;;;;8.57;2.65;;;;;;;17.24;43.05;98250.03;5034950;28;20104;-73
2021/11/01 02:40:58;;;;;;;2.78;1.77;;;;;;;17.77;42.11;98242.09;5035074;28;20464;-73
2021/11/01 02:43:26;;;;;;;5.80;1.40;;;;;;;17.42;42.92;98253.28;5035017;28;20025;-73
2021/11/01 02:45:52;;;;;;;9.85;1.88;;;;;;;17.41;43.08;98254.47;5034922;28;20026;-73
2021/11/01 02:48:18;;;;;;;6.20;1.90;;;;;;;17.21;43.43;98245.31;5034961;28;20025;-73
2021/11/01 02:50:44;;;;;;;6.68;2.40;;;;;;;17.33;42.89;98247.50;5035162;28;20395;-73
2021/11/01 02:53:10;;;;;;;7.00;1.63;;;;;;;17.08;43.69;98253.41;5034874;28;20040;-73
2021/11/01 02:55:37;;;;;;;6.45;1.52;;;;;;;17.40;42.48;98263.97;5034685;28;20488;-73
2021/11/01 02:58:04;;;;;;;6.65;1.80;;;;;;;17.04;43.17;98260.94;5034764;28;20053;-73
2021/11/01 03:00:30;;;;;;;7.47;1.60;;;;;;;17.02;43.10;98265.31;5034695;28;20025;-73
2021/11/01 03:02:57;;;;;;;9.38;1.60;;;;;;;16.90;43.06;98275.72;5034774;28;20101;-73
2021/11/01 03:05:27;;;;;;;12.82;3.15;;;;;;;17.18;42.65;98271.00;5034350;28;20045;-73
2021/11/01 03:07:56;;;;;;;9.85;2.00;;;;;;;17.23;42.52;98284.34;5034608;28;20112;-73
2021/11/01 03:10:26;;;;;;;4.47;1.35;;;;;;;17.22;42.65;98263.44;5034562;28;20021;-73
2021/11/01 03:12:53;;;;;;;3.20;0.73;;;;;;;17.24;42.15;98293.41;5034489;28;20029;-73
2021/11/01 03:15:24;;;;;;;5.47;1.08;;;;;;;17.55;41.68;98283.84;5034489;28;20033;-73
2021/11/01 03:18:01;;;;;;;1.02;0.77;;;;;;;17.53;41.56;98288.19;5034475;28;20108;-74
2021/11/01 03:20:31;;;;;;;4.30;1.38;;;;;;;17.22;41.80;98301.28;5034400;28;20381;-73
2021/11/01 03:23:04;;;;;;;5.88;0.95;;;;;;;17.38;41.72;98287.63;5034372;28;20499;-73
2021/11/01 03:25:33;;;;;;;4.72;0.95;;;;;;;17.24;42.22;98293.41;5034293;28;20025;-73
2021/11/01 03:28:10;;;;;;;3.55;0.82;;;;;;;17.70;40.90;98289.91;5034521;28;20026;-73
2021/11/01 03:30:38;;;;;;;4.93;0.80;;;;;;;17.61;41.17;98292.44;5034158;28;20029;-73
2021/11/01 03:33:04;;;;;;;3.63;1.15;;;;;;;17.35;41.94;98299.53;5034079;28;20468;-73
2021/11/01 03:35:31;;;;;;;4.47;1.00;;;;;;;17.05;42.26;98300.34;5034033;28;20104;-73
2021/11/01 03:38:00;;;;;;;1.40;0.60;;;;;;;16.71;42.88;98303.16;5033936;28;20022;-73
2021/11/01 03:40:27;;;;;;;2.57;0.80;;;;;;;17.22;42.15;98306.81;5034268;28;20088;-73
2021/11/01 03:42:54;;;;;;;4.30;1.30;;;;;;;17.22;41.98;98302.06;5033889;28;20018;-73
2021/11/01 03:45:22;;;;;;;4.82;1.10;;;;;;;17.47;41.61;98313.53;5033852;28;20598;-73
2021/11/01 03:47:49;;;;;;;2.90;0.90;;;;;;;17.47;41.53;98332.09;5033358;28;20040;-73
2021/11/01 03:50:26;;;;;;;3.92;0.98;;;;;;;17.02;42.40;98324.03;5033759;28;20017;-73
2021/11/01 03:52:53;;;;;;;5.38;0.75;;;;;;;17.12;42.53;98327.84;5033692;28;20060;-74
2021/11/01 03:55:20;;;;;;;2.65;0.73;;;;;;;17.58;41.21;98329.94;5033633;28;20095;-73
2021/11/01 03:57:46;;;;;;;1.63;0.57;;;;;;;17.63;41.04;98336.97;5033769;28;20029;-73
2021/11/01 04:00:13;;;;;;;2.33;1.17;;;;;;;18.03;40.30;98316.59;5015778;28;20033;-73
2021/11/01 04:02:45;;;;;;;2.70;0.52;;;;;;;17.07;42.27;98331.06;5033494;28;20037;-73
2021/11/01 04:05:11;;;;;;;3.25;0.90;;;;;;;17.53;41.62;98337.88;5012289;28;20100;-73
2021/11/01 04:07:37;;;;;;;6.72;1.25;;;;;;;17.65;41.31;98342.84;5013670;28;20033;-74
2021/11/01 04:10:03;;;;;;;5.05;1.60;;;;;;;17.45;41.85;98345.50;5013716;28;20026;-73
2021/11/01 04:12:29;;;;;;;4.47;1.10;;;;;;;16.91;42.98;98359.25;5012294;28;20088;-74
2021/11/01 04:15:08;;;;;;;5.75;2.25;;;;;;;17.85;41.10;98340.97;5013611;28;20026;-73
2021/11/01 04:22:37;;;;;;;3.33;1.25;;;;;;;17.81;41.45;98358.81;5013495;28;20499;-73
2021/11/01 04:25:08;;;;;;;5.18;1.52;;;;;;;17.16;42.80;98359.72;5013466;28;20057;-73
2021/11/01 04:27:34;;;;;;;4.03;1.00;;;;;;;17.24;42.83;98365.94;5013400;28;20021;-73
2021/11/01 04:30:00;;;;;;;3.65;1.17;;;;;;;17.37;42.84;98363.38;5013081;28;20030;-73
2021/11/01 04:35:03;;;;;;;11.15;3.08;;;;;;;17.70;42.55;98389.34;5013679;28;20460;-73
2021/11/01 04:37:29;;;;;;;5.45;1.10;;;;;;;17.80;42.48;98398.69;5013294;28;20424;-73
2021/11/01 04:40:13;;;;;;;3.58;1.33;;;;;;;17.71;42.63;98386.19;5011827;28;20136;-73
2021/11/01 04:53:21;;;;;;;6.68;0.93;;;;;;;17.47;43.39;98414.91;5032801;28;20041;-73
2021/11/01 04:55:46;;;;;;;4.35;1.42;;;;;;;17.60;43.22;98407.59;5032724;28;20419;-73
2021/11/01 04:58:13;;;;;;;6.45;0.98;;;;;;;17.28;43.97;98421.06;5031995;28;20043;-73
2021/11/01 05:00:39;;;;;;;3.85;1.13;;;;;;;17.59;42.94;98425.38;5032531;28;20357;-73
2021/11/01 05:03:20;;;;;;;2.50;0.77;;;;;;;16.95;44.37;98442.75;5031355;28;20052;-73
2021/11/01 05:05:46;;;;;;;6.53;1.15;;;;;;;17.71;42.68;98432.34;5032623;28;20108;-73
2021/11/01 05:08:14;;;;;;;3.28;0.82;;;;;;;17.37;43.54;98458.00;5032713;28;20388;-73
2021/11/01 05:10:42;;;;;;;2.75;0.82;;;;;;;17.05;44.58;98469.41;5032530;28;20049;-73
2021/11/01 05:13:29;;;;;;;3.75;1.40;;;;;;;17.51;43.83;98470.84;5032512;28;20108;-73
2021/11/01 05:16:04;;;;;;;3.60;0.82;;;;;;;17.26;44.44;98471.16;5031209;28;20030;-73
2021/11/01 05:18:38;;;;;;;4.57;1.02;;;;;;;17.79;43.15;98478.00;5032442;28;20022;-73
2021/11/01 05:24:26;;;;;;;2.92;0.65;;;;;;;17.93;42.84;98475.03;5032739;28;20542;-73
2021/11/01 05:29:11;;;;;;;2.15;0.70;;;;;;;16.96;45.40;98502.22;5032515;28;20574;-73
2021/11/01 05:31:48;;;;;;;3.85;1.17;;;;;;;17.50;44.33;98510.69;5032363;28;20060;-73
2021/11/01 05:34:18;;;;;;;3.28;1.10;;;;;;;17.80;43.61;98523.75;5032380;28;20022;-73
2021/11/01 05:36:44;;;;;;;3.38;1.23;;;;;;;17.27;45.34;98500.31;5032386;28;20029;-73
2021/11/01 05:39:10;;;;;;;3.13;0.70;;;;;;;17.46;44.67;98521.78;5032403;28;20122;-73
2021/11/01 05:41:37;;;;;;;3.58;1.13;;;;;;;17.03;46.02;98529.75;5032272;28;20025;-73
2021/11/01 05:44:03;;;;;;;2.47;0.82;;;;;;;17.80;44.01;98536.78;5032297;28;20520;-73
2021/11/01 05:46:34;;;;;;;5.30;0.93;;;;;;;17.19;45.41;98542.97;5032446;28;20029;-73
2021/11/01 05:49:02;;;;;;;2.67;0.82;;;;;;;17.81;43.98;98541.88;5032250;28;20021;-73
2021/11/01 05:51:29;;;;;;;8.77;1.27;;;;;;;17.85;44.19;98537.09;5030816;28;20179;-73
2021/11/01 05:53:59;;;;;;;5.68;1.55;;;;;;;17.85;43.93;98550.16;5032147;28;20041;-74
2021/11/01 06:03:55;;;;;;;3.80;0.90;;;;;;;17.88;43.94;98569.41;5036428;28;20044;-73
2021/11/01 06:09:54;;;;;;;7.00;1.00;;;;;;;17.40;45.21;98594.44;5052182;28;20506;-73
2021/11/01 06:14:34;;;;;;;2.72;0.70;;;;;;;17.48;44.53;98591.16;5055790;28;20040;-73
2021/11/01 06:17:00;;;;;;;7.65;1.27;;;;;;;17.78;44.04;98603.50;5055448;28;20025;-73
2021/11/01 06:19:27;;;;;;;4.60;1.20;;;;;;;17.70;44.43;98607.50;5055314;28;20021;-73
2021/11/01 06:21:53;;;;;;;3.58;0.95;;;;;;;17.38;45.15;98607.84;5055343;28;20111;-73
2021/11/01 06:27:08;;;;;;;4.30;1.02;;;;;;;17.23;45.64;98626.53;5055572;28;20502;-73
2021/11/01 06:29:44;;;;;;;;;;;;;;;17.67;44.59;98638.69;5037736;28;20025;-73
2021/11/01 06:42:59;;;;;;;4.03;0.95;;;;;;;17.57;44.67;98654.19;5055006;28;20021;-73
2021/11/01 06:45:31;;;;;;;3.35;0.57;;;;;;;17.85;43.97;98657.88;5054684;28;20102;-72
2021/11/01 07:17:08;;;;;;;3.05;0.65;;;;;;;18.14;43.63;98742.03;5054332;28;20021;-72
2021/11/01 07:20:06;;;;;;;2.50;0.75;;;;;;;18.23;43.50;98722.19;5036351;28;20104;-72
2021/11/01 07:23:15;;;;;;;7.07;1.27;;;;;;;17.78;44.83;98738.06;5051896;28;20463;-72
2021/11/01 08:22:26;;;;;;;7.78;1.13;;;;;;;17.87;44.31;98813.72;5052068;28;20090;-73
2021/11/01 08:28:23;;;;;;;5.50;1.50;;;;;;;18.12;43.76;98819.00;5052285;28;20498;-73
2021/11/01 09:01:48;;;;;;;4.38;0.80;;;;;;;17.67;44.09;98862.41;5031108;28;20029;-76
2021/11/01 09:04:41;;;;;;;2.15;0.65;;;;;;;17.58;44.32;98873.91;5010387;28;20050;-74
2021/11/01 09:10:06;;;;;;;1.63;0.60;;;;;;;17.40;44.08;98878.75;5009683;28;20481;-74
2021/11/01 09:23:40;;;;;;;1.65;0.75;;;;;;;18.10;42.12;98898.00;5011986;28;20500;-75
2021/11/01 09:26:13;;;;;;;1.33;0.40;;;;;;;17.94;42.22;98896.56;5012277;28;20014;-73
2021/11/01 09:36:55;;;;;;;1.00;0.43;;;;;;;18.50;40.92;98915.81;5011233;28;20167;-74
2021/11/01 09:42:05;;;;;;;3.08;1.08;;;;;;;18.37;40.97;98925.81;5010752;28;20072;-76
2021/11/01 09:44:32;;;;;;;2.63;0.93;;;;;;;17.95;41.33;98924.97;5011205;28;20112;-75
2021/11/01 09:47:02;;;;;;;2.80;1.00;;;;;;;18.35;40.97;98926.22;5015932;28;20025;-77
2021/11/01 09:49:28;;;;;;;;;;;;;;;18.49;40.79;98922.53;4992866;28;20069;-75
2021/11/01 09:51:57;;;;;;;1.17;0.80;;;;;;;17.76;42.30;98920.78;5014930;28;20003;-75
2021/11/01 09:54:26;;;;;;;0.32;0.30;;;;;;;18.72;40.91;98919.16;5014843;28;20022;-75
2021/11/01 09:57:03;;;;;;;1.67;0.73;;;;;;;18.44;41.53;98922.97;5012180;28;20025;-75
2021/11/01 09:59:40;;;;;;;2.08;0.73;;;;;;;18.65;41.24;98933.81;5013707;28;20037;-75
2021/11/01 10:02:08;;;;;;;4.32;0.90;;;;;;;19.04;40.76;98940.94;5013236;28;20464;-74
2021/11/01 10:04:36;;;;;;;1.08;0.52;;;;;;;18.74;41.31;98936.94;5014401;28;20042;-75
2021/11/01 10:10:02;;;;;;;3.25;0.60;;;;;;;18.70;41.26;98952.78;5012925;28;20041;-76
2021/11/01 10:12:33;;;;;;;0.73;0.38;;;;;;;19.10;40.46;98953.13;5012476;28;20026;-74
2021/11/01 10:17:33;;;;;;;0.50;0.40;;;;;;;18.46;41.61;98960.09;5014876;28;20547;-74
2021/11/01 10:17:57;;;;;;;3.67;0.70;;;;;;;18.66;40.79;98954.78;5012186;28;20133;-76
2021/11/01 10:20:23;;;;;;;1.27;0.57;;;;;;;18.50;40.87;98966.38;5014982;28;20049;-74
2021/11/01 10:22:48;;;;;;;3.15;0.88;;;;;;;18.97;39.97;98963.97;5014580;28;20484;-75
2021/11/01 10:25:18;;;;;;;2.10;0.52;;;;;;;18.77;40.36;98960.22;5014517;28;20033;-75
2021/11/01 10:27:52;;;;;;;2.97;0.77;;;;;;;18.74;40.42;98961.03;5014609;28;20025;-76
2021/11/01 10:30:23;;;;;;;1.17;0.60;;;;;;;18.78;40.10;98976.41;5014778;28;20030;-74
2021/11/01 10:32:51;;;;;;;2.88;0.55;;;;;;;18.84;40.36;98974.00;5014861;28;20053;-76
2021/11/01 10:35:30;;;;;;;2.20;0.50;;;;;;;18.79;40.58;98975.22;5013546;28;20464;-76
2021/11/01 10:37:58;;;;;;;3.13;0.77;;;;;;;18.49;41.40;98977.84;5014991;28;20396;-75
2021/11/01 10:40:26;;;;;;;3.53;0.68;;;;;;;18.43;41.61;98980.25;5014618;28;20030;-75
2021/11/01 10:42:52;;;;;;;2.90;1.00;;;;;;;18.81;41.17;98978.34;5014887;28;20022;-73
2021/11/01 11:12:50;;;;;;;3.53;0.70;;;;;;;20.00;39.61;99022.03;5029990;28;20037;-77
2021/11/01 11:15:16;;;;;;;2.00;0.70;;;;;;;20.05;39.90;99029.91;5015357;28;20021;-75
2021/11/01 11:23:24;;;;;;;3.95;0.70;;;;;;;19.64;40.72;99042.69;5033117;28;20027;-75
2021/11/01 11:32:14;;;;;;;2.35;1.00;;;;;;;20.50;38.69;99053.41;5033089;28;20018;-74
2021/11/01 11:37:47;;;;;;;2.92;0.65;;;;;;;19.94;39.48;99055.75;5031418;28;20033;-82
2021/11/01 11:50:43;;;;;;;5.80;0.80;;;;;;;20.22;39.02;99057.34;5027879;28;20033;-85
2021/11/01 11:53:14;;;;;;;9.50;2.22;;;;;;;19.85;39.86;99052.72;5015951;28;20121;-86
2021/11/01 11:55:46;;;;;;;3.45;0.98;;;;;;;19.74;39.88;99056.84;5033456;28;20384;-86
2021/11/01 11:58:15;;;;;;;3.47;0.90;;;;;;;20.27;38.51;99064.44;5015511;28;20033;-85
2021/11/01 12:00:42;;;;;;;12.63;1.15;;;;;;;20.13;39.07;99064.63;5011852;28;20569;-86
2021/11/01 12:03:15;;;;;;;4.15;0.75;;;;;;;19.98;39.17;99063.25;5014586;28;20018;-81
2021/11/01 12:08:56;;;;;;;8.45;1.23;;;;;;;20.14;38.75;99066.19;5031894;28;20044;-81
2021/11/01 12:19:06;;;;;;;2.38;0.68;;;;;;;20.10;38.78;99074.59;5027323;28;20060;-81
2021/11/01 12:21:35;;;;;;;11.40;1.38;;;;;;;19.63;39.45;99074.38;5015147;28;20064;-86
2021/11/01 12:24:00;;;;;;;3.08;1.40;;;;;;;20.20;38.57;99072.84;5014484;28;20108;-82
2021/11/01 12:26:27;;;;;;;2.08;1.02;;;;;;;20.41;38.63;99069.78;5014511;28;20112;-81
2021/11/01 12:28:55;;;;;;;3.25;0.63;;;;;;;19.87;39.06;99071.69;5014469;28;20142;-81
2021/11/01 12:31:22;;;;;;;5.13;0.80;;;;;;;20.31;38.45;99070.69;5014572;28;20494;-80
2021/11/01 12:33:54;;;;;;;7.22;1.20;;;;;;;20.44;38.21;99071.72;5014650;28;20029;-80
2021/11/01 12:36:27;;;;;;;1.15;0.50;;;;;;;20.27;38.54;99075.53;5013830;28;20644;-81
2021/11/01 12:39:04;;;;;;;2.80;1.00;;;;;;;20.01;39.16;99079.06;5032036;28;20037;-83
2021/11/01 12:57:42;;;;;;;2.42;0.60;;;;;;;19.57;40.07;99089.91;5032864;28;20040;-81
2021/11/01 13:00:08;;;;;;;4.72;1.00;;;;;;;20.59;37.98;99093.69;5029151;28;20069;-83
2021/11/01 13:02:39;;;;;;;2.53;0.80;;;;;;;20.23;38.86;99092.19;5024620;28;20041;-81
2021/11/01 13:05:13;;;;;;;5.18;1.10;;;;;;;20.69;38.22;99099.06;5000286;28;20042;-80
2021/11/01 13:10:22;;;;;;;3.25;0.82;;;;;;;20.19;38.71;99101.78;5025967;28;20021;-82
2021/11/01 13:18:13;;;;;;;3.90;1.10;;;;;;;20.87;36.87;99101.56;4985247;28;20038;-84
2021/11/01 13:20:46;;;;;;;4.90;1.38;;;;;;;20.64;37.76;99105.13;5025413;28;20096;-80
2021/11/01 13:23:13;;;;;;;3.72;1.15;;;;;;;20.41;38.20;99105.03;5025410;28;20504;-84
2021/11/01 13:28:39;;;;;;;4.20;1.50;;;;;;;20.50;37.57;99102.56;5033144;28;20083;-87
2021/11/01 13:37:15;;;;;;;10.88;3.00;;;;;;;21.04;36.23;99106.03;5024891;28;20526;-81
2021/11/01 13:39:41;;;;;;;3.38;0.80;;;;;;;21.13;36.45;99101.91;5027146;28;20395;-84
2021/11/01 13:42:16;;;;;;;1.83;0.75;;;;;;;20.95;36.27;99103.03;4998636;28;20030;-81
2021/11/01 13:44:44;;;;;;;2.35;0.73;;;;;;;21.34;35.71;99107.13;5016753;28;20091;-81
2021/11/01 13:47:14;;;;;;;9.50;2.17;;;;;;;21.16;36.02;99096.31;5015713;28;20025;-82
2021/11/01 13:49:43;;;;;;;5.68;1.40;;;;;;;21.11;36.02;99107.91;5016363;28;20030;-82
2021/11/01 13:55:04;;;;;;;4.97;0.90;;;;;;;21.12;35.93;99106.69;5016331;28;20448;-82
2021/11/01 13:57:37;;;;;;;2.60;0.98;;;;;;;20.85;35.76;99106.75;5015338;28;20377;-81
2021/11/01 14:11:04;;;;;;;3.97;1.33;;;;;;;20.56;36.03;99108.44;5014533;28;20076;-81
2021/11/01 14:16:17;;;;;;;7.55;1.17;;;;;;;21.20;35.37;99110.91;5016285;28;20033;-84
2021/11/01 14:29:40;;;;;;;4.75;1.25;;;;;;;20.52;36.63;99124.31;5015962;28;20068;-82
2021/11/01 14:35:08;;;;;;;8.40;1.60;;;;;;;20.72;36.59;99137.09;5015844;28;20438;-82
2021/11/01 15:08:40;;;;;;;3.47;1.83;;;;;;;20.87;36.85;99139.66;5015434;28;20026;-81
2021/11/01 15:21:10;;;;;;;6.65;1.73;;;;;;;20.75;36.90;99149.34;5035031;28;20492;-87
2021/11/01 15:26:46;;;;;;;7.70;2.05;;;;;;;20.70;37.07;99167.25;5033183;28;20061;-82
2021/11/01 15:34:30;;;;;;;7.93;1.77;;;;;;;20.30;37.80;99166.19;5034456;28;20095;-83
2021/11/01 15:39:47;;;;;;;5.35;1.77;;;;;;;20.46;37.30;99160.06;5034484;28;20030;-82
2021/11/01 16:18:09;;;;;;;20.70;4.43;;;;;;;19.59;37.80;99219.69;5034144;28;20041;-82
2021/11/01 16:20:35;;;;;;;22.17;2.75;;;;;;;19.47;37.77;99220.94;5016040;28;20079;-81
2021/11/01 16:23:34;;;;;;;4.43;1.10;;;;;;;19.45;37.54;99222.56;5033596;28;20472;-81
2021/11/01 16:25:56;;;;;;;7.68;1.30;;;;;;;19.44;37.27;99223.75;5030393;28;20120;-82
2021/11/01 16:28:29;;;;;;;9.38;2.45;;;;;;;19.04;37.46;99218.56;5015738;28;20542;-82
2021/11/01 16:31:16;;;;;;;17.23;3.55;;;;;;;19.50;36.83;99222.13;5033584;28;20565;-82
2021/11/01 16:33:46;;;;;;;7.35;1.92;;;;;;;19.35;37.06;99215.94;5015875;28;20061;-84
2021/11/01 16:36:22;;;;;;;;;;;;;;;19.46;36.60;99224.13;5033989;28;20056;-82
2021/11/01 16:38:51;;;;;;;1.65;0.90;;;;;;;19.71;36.27;99216.38;5015885;28;20314;-83
2021/11/01 16:41:21;;;;;;;36.17;6.38;;;;;;;19.68;36.41;99218.00;5033828;28;20104;-88
2021/11/01 16:43:49;;;;;;;64.05;8.85;;;;;;;19.58;36.43;99221.69;5015618;28;20026;-82
2021/11/01 16:46:14;;;;;;;42.22;6.93;;;;;;;19.61;36.19;99233.91;5015856;28;20022;-82
2021/11/01 16:48:44;;;;;;;9.35;1.63;;;;;;;19.72;35.56;99225.50;5033399;28;20031;-81
2021/11/01 16:51:10;;;;;;;13.07;2.45;;;;;;;19.67;35.80;99241.38;5015787;28;20449;-82
2021/11/01 16:53:39;;;;;;;16.02;2.85;;;;;;;19.47;35.89;99234.78;5015468;28;20084;-82
2021/11/01 17:01:52;;;;;;;23.67;5.05;;;;;;;19.48;35.44;99244.69;5033504;28;20036;-82
2021/11/01 17:04:20;;;;;;;19.80;3.95;;;;;;;19.48;35.51;99247.44;5015412;28;20453;-81
2021/11/01 17:07:11;;;;;;;13.25;2.17;;;;;;;19.36;35.52;99250.72;5032839;28;20034;-82
2021/11/01 17:26:09;;;;;;;5.22;2.08;;;;;;;18.92;35.85;99265.28;5033273;28;20121;-88
2021/11/01 17:37:02;;;;;;;20.80;6.18;;;;;;;18.91;36.03;99266.47;5032427;28;20111;-77
2021/11/01 18:43:17;;;;;;;8.77;2.80;;;;;;;17.88;39.00;99303.53;5031581;28;20056;-72
2021/11/01 18:51:14;;;;;;;7.50;2.95;;;;;;;17.78;39.48;99327.25;5015372;28;20542;-71
2021/11/01 18:53:44;;;;;;;4.05;1.95;;;;;;;17.84;39.48;99333.16;5015130;28;20036;-75
2021/11/01 18:56:12;;;;;;;;;;;;;;;17.77;39.52;99330.41;5015770;28;20407;-72
2021/11/01 18:58:40;;;;;;;7.40;2.30;;;;;;;17.85;39.40;99329.22;5014869;28;19960;-72
2021/11/01 19:01:12;;;;;;;4.10;2.47;;;;;;;17.92;39.37;99331.97;5015040;28;20030;-73
2021/11/01 19:03:45;;;;;;;4.45;1.80;;;;;;;17.74;39.95;99326.44;5014751;28;20494;-71
2021/11/01 19:06:37;;;;;;;6.80;2.38;;;;;;;17.62;39.89;99335.91;4997255;28;20512;-71
2021/11/01 20:04:33;;;;;;;21.75;4.88;;;;;;;17.39;40.74;99365.88;5033438;28;20048;-75
2021/11/01 20:08:04;;;;;;;5.53;2.63;;;;;;;17.36;40.84;99364.66;5014864;28;20120;-74
2021/11/01 20:10:35;;;;;;;11.35;3.38;;;;;;;17.46;40.48;99365.88;5032027;28;20476;-79
2021/11/01 20:13:14;;;;;;;6.18;2.60;;;;;;;17.26;40.96;99364.66;5032106;28;20409;-75
2021/11/01 20:16:14;;;;;;;13.82;3.85;;;;;;;17.20;40.99;99369.75;5014625;28;20033;-74
2021/11/01 21:26:11;;;;;;;7.20;3.72;;;;;;;17.06;41.00;99397.31;4950977;29;20114;-78
2021/11/01 21:28:36;;;;;;;13.80;5.18;;;;;;;17.13;40.58;99409.16;5013754;28;20048;-77
2021/11/01 21:31:02;;;;;;;9.65;4.65;;;;;;;16.86;41.23;99405.13;5013336;28;20022;-80
2021/11/01 21:33:33;;;;;;;8.77;3.60;;;;;;;16.80;41.31;99407.47;5013536;28;20071;-77
2021/11/01 21:36:05;;;;;;;8.32;3.78;;;;;;;17.09;40.72;99394.56;5030676;28;20029;-74
2021/11/01 21:38:32;;;;;;;9.90;3.40;;;;;;;17.13;40.52;99403.63;5031842;28;20017;-75
2021/11/01 21:40:58;;;;;;;7.63;4.50;;;;;;;16.97;41.08;99399.63;5030282;28;20148;-75
2021/11/01 21:43:23;;;;;;;8.82;3.88;;;;;;;17.07;40.90;99405.19;5036193;28;20052;-79
2021/11/01 21:45:50;;;;;;;8.85;4.95;;;;;;;16.84;41.34;99407.47;5018351;28;20476;-75
2021/11/01 21:48:15;;;;;;;10.85;5.15;;;;;;;16.67;41.50;99417.19;5018357;28;20040;-79
2021/11/01 21:50:45;;;;;;;16.00;4.97;;;;;;;16.81;41.20;99419.28;5035657;28;20483;-74
2021/11/01 21:53:12;;;;;;;;;;;;;;;16.71;41.45;99418.06;5016246;28;20139;-76
2021/11/01 21:55:37;;;;;;;12.23;4.55;;;;;;;16.96;40.76;99422.91;5035509;28;19913;-78
2021/11/01 21:58:15;;;;;;;8.68;3.97;;;;;;;16.91;40.59;99419.31;5017647;28;20104;-74
2021/11/01 22:22:08;;;;;;;11.48;4.78;;;;;;;16.63;40.61;99432.97;5034081;28;20160;-73
2021/11/01 22:24:54;;;;;;;9.80;4.05;;;;;;;16.21;42.09;99425.97;5034757;28;20029;-74
2021/11/01 22:41:29;;;;;;;7.07;3.78;;;;;;;16.61;40.50;99430.56;5033620;28;20523;-74
2021/11/01 22:46:39;;;;;;;7.07;3.85;;;;;;;16.55;40.60;99428.53;5034893;28;20029;-74
2021/11/01 22:57:06;;;;;;;6.68;3.33;;;;;;;16.52;40.22;99427.34;5035098;28;20044;-73
2021/11/01 22:59:32;;;;;;;5.47;3.10;;;;;;;16.52;39.98;99424.59;5034635;28;20037;-74
2021/11/01 23:01:58;;;;;;;10.85;3.60;;;;;;;16.51;40.07;99431.28;5034718;28;20116;-73
2021/11/01 23:31:25;;;;;;;8.80;3.80;;;;;;;16.59;39.80;99430.16;5034887;28;20029;-74
2021/11/01 23:31:42;;;;;;;9.38;3.22;;;;;;;16.31;39.86;99432.72;5034174;28;20046;-75
2021/11/01 23:34:14;;;;;;;5.82;3.10;;;;;;;15.89;40.57;99439.50;5034095;28;20030;-74
2021/11/01 23:36:41;;;;;;;5.88;3.22;;;;;;;15.66;41.40;99427.88;5034088;28;20033;-74
2021/11/01 23:39:08;;;;;;;8.02;3.53;;;;;;;15.84;41.02;99437.06;5033947;28;20120;-74